Hamburg, Wisconsin
Current Conditions -  °F | °C
As of 10:55 AM on Saturday 25 Oct 2014 (Local Time) from KMDZ Reporting Station
Clear Clear  
Wind Chill: 53°   Ceiling: Unl
Heat Index: 53°   Visibility: 10mi
Dew Point: 34°   Wind: 17mph
Humidity: 48%   Direction: 300°WNW
Pressure: 29.91"   Gusts: 22mph
Location:  45.0406°N, 90.0529°W
Report Text: KMDZ 251555Z AUTO 30015G19KT 10SM CLR 12/01 A2991 RMK AO2 T01170010
Loading
Personal Weather Stations






























Interactive Weather Map
Tropical Storm Tracking
New forecast layout! Learn more

10-Day Weather Forecast

Advertisements
Track Severe Weather on mobile